07/22 12:00 更新

弱い霧雨が降っている
300ftに雲が少し
500ftに雲が多い
800ftに雲が多い

地上風: 方向不定 2kt

上空風(熊谷ウインドプロファイラ)
13,000ft: 250°17kt
10,000ft: 250°12kt
 7,000ft: 290°6kt
 3,000ft: 110°8kt

地上: 22℃
上空: 4.8℃

日没: 18:54

実況天気図


予想天気図


RJTJ 220300Z VRB02KT 5000 -DZ BR FEW003 BKN005 BKN008 22/21 Q1011 RMK 1ST003 6ST005 7ST008 A2987=

GPV気象予報
気象庁
日本気象協会

玉淀ダム放流量(1,000m3/sを超えた7時間後にDZ冠水)
太郎衛門橋テレメータ水位(11mでDZ冠水)

skydive.jp